sensor_id;sensor_type;location;lat;lon;timestamp;P1;durP1;ratioP1;P2;durP2;ratioP2
73296;SDS011;61524;50.938;11.396;2023-05-07T00:00:16;36.42;;;17.30;;
73296;SDS011;61524;50.938;11.396;2023-05-07T00:02:43;29.70;;;15.93;;
73296;SDS011;61524;50.938;11.396;2023-05-07T00:05:09;37.53;;;16.05;;
73296;SDS011;61524;50.938;11.396;2023-05-07T00:07:35;39.05;;;18.45;;
73296;SDS011;61524;50.938;11.396;2023-05-07T00:10:01;33.92;;;16.27;;
73296;SDS011;61524;50.938;11.396;2023-05-07T00:12:26;30.65;;;17.60;;
73296;SDS011;61524;50.938;11.396;2023-05-07T00:14:52;37.42;;;17.02;;
73296;SDS011;61524;50.938;11.396;2023-05-07T00:17:17;32.35;;;16.70;;
73296;SDS011;61524;50.938;11.396;2023-05-07T00:19:43;34.47;;;17.00;;
73296;SDS011;61524;50.938;11.396;2023-05-07T00:22:08;36.80;;;18.23;;
73296;SDS011;61524;50.938;11.396;2023-05-07T00:24:34;31.77;;;16.90;;
73296;SDS011;61524;50.938;11.396;2023-05-07T00:26:59;34.75;;;16.80;;
73296;SDS011;61524;50.938;11.396;2023-05-07T00:29:25;34.20;;;16.92;;
73296;SDS011;61524;50.938;11.396;2023-05-07T00:31:50;33.15;;;15.45;;
73296;SDS011;61524;50.938;11.396;2023-05-07T00:34:16;32.55;;;15.90;;
73296;SDS011;61524;50.938;11.396;2023-05-07T00:36:41;34.00;;;15.80;;
73296;SDS011;61524;50.938;11.396;2023-05-07T00:39:07;34.03;;;16.23;;
73296;SDS011;61524;50.938;11.396;2023-05-07T00:41:32;31.80;;;15.25;;
73296;SDS011;61524;50.938;11.396;2023-05-07T00:43:58;29.90;;;15.32;;
73296;SDS011;61524;50.938;11.396;2023-05-07T00:46:23;30.42;;;15.50;;
73296;SDS011;61524;50.938;11.396;2023-05-07T00:48:50;28.40;;;15.55;;
73296;SDS011;61524;50.938;11.396;2023-05-07T00:51:16;33.45;;;15.77;;
73296;SDS011;61524;50.938;11.396;2023-05-07T00:53:42;37.10;;;15.88;;
73296;SDS011;61524;50.938;11.396;2023-05-07T00:56:08;32.70;;;15.70;;
73296;SDS011;61524;50.938;11.396;2023-05-07T00:58:34;35.50;;;15.85;;
73296;SDS011;61524;50.938;11.396;2023-05-07T01:01:00;33.97;;;16.48;;
73296;SDS011;61524;50.938;11.396;2023-05-07T01:03:26;33.80;;;18.85;;
73296;SDS011;61524;50.938;11.396;2023-05-07T01:05:52;37.00;;;17.55;;
73296;SDS011;61524;50.938;11.396;2023-05-07T01:08:19;36.10;;;17.15;;
73296;SDS011;61524;50.938;11.396;2023-05-07T01:10:45;35.15;;;16.83;;
73296;SDS011;61524;50.938;11.396;2023-05-07T01:13:12;36.20;;;18.05;;
73296;SDS011;61524;50.938;11.396;2023-05-07T01:15:39;35.65;;;17.67;;
73296;SDS011;61524;50.938;11.396;2023-05-07T01:18:06;34.58;;;16.30;;
73296;SDS011;61524;50.938;11.396;2023-05-07T01:20:32;34.97;;;15.13;;
73296;SDS011;61524;50.938;11.396;2023-05-07T01:22:57;34.50;;;15.80;;
73296;SDS011;61524;50.938;11.396;2023-05-07T01:25:25;34.50;;;16.48;;
73296;SDS011;61524;50.938;11.396;2023-05-07T01:27:51;36.80;;;16.75;;
73296;SDS011;61524;50.938;11.396;2023-05-07T01:30:16;31.40;;;16.17;;
73296;SDS011;61524;50.938;11.396;2023-05-07T01:33:06;31.38;;;15.32;;
73296;SDS011;61524;50.938;11.396;2023-05-07T01:35:37;31.52;;;16.73;;
73296;SDS011;61524;50.938;11.396;2023-05-07T01:38:05;38.00;;;17.33;;
73296;SDS011;61524;50.938;11.396;2023-05-07T01:40:32;35.78;;;16.70;;
73296;SDS011;61524;50.938;11.396;2023-05-07T01:45:24;36.45;;;17.27;;
73296;SDS011;61524;50.938;11.396;2023-05-07T01:47:50;38.60;;;18.10;;
73296;SDS011;61524;50.938;11.396;2023-05-07T01:50:18;35.08;;;17.65;;
73296;SDS011;61524;50.938;11.396;2023-05-07T01:52:45;31.92;;;16.25;;
73296;SDS011;61524;50.938;11.396;2023-05-07T01:55:12;36.92;;;17.58;;
73296;SDS011;61524;50.938;11.396;2023-05-07T01:57:37;32.95;;;17.15;;
73296;SDS011;61524;50.938;11.396;2023-05-07T02:00:03;35.03;;;16.17;;
73296;SDS011;61524;50.938;11.396;2023-05-07T02:02:30;37.85;;;17.60;;
73296;SDS011;61524;50.938;11.396;2023-05-07T02:04:55;31.00;;;16.50;;
73296;SDS011;61524;50.938;11.396;2023-05-07T02:07:21;32.70;;;17.83;;
73296;SDS011;61524;50.938;11.396;2023-05-07T02:09:47;30.30;;;15.25;;
73296;SDS011;61524;50.938;11.396;2023-05-07T02:12:12;29.60;;;15.63;;
73296;SDS011;61524;50.938;11.396;2023-05-07T02:14:38;32.88;;;16.98;;
73296;SDS011;61524;50.938;11.396;2023-05-07T02:17:03;33.58;;;17.67;;
73296;SDS011;61524;50.938;11.396;2023-05-07T02:19:28;34.15;;;16.58;;
73296;SDS011;61524;50.938;11.396;2023-05-07T02:21:54;36.13;;;16.45;;
73296;SDS011;61524;50.938;11.396;2023-05-07T02:24:20;31.17;;;17.55;;
73296;SDS011;61524;50.938;11.396;2023-05-07T02:26:45;32.13;;;15.93;;
73296;SDS011;61524;50.938;11.396;2023-05-07T02:29:11;31.73;;;15.98;;
73296;SDS011;61524;50.938;11.396;2023-05-07T02:31:36;32.97;;;16.17;;
73296;SDS011;61524;50.938;11.396;2023-05-07T02:34:02;32.33;;;16.15;;
73296;SDS011;61524;50.938;11.396;2023-05-07T02:36:27;29.02;;;15.07;;
73296;SDS011;61524;50.938;11.396;2023-05-07T02:38:53;29.08;;;15.27;;
73296;SDS011;61524;50.938;11.396;2023-05-07T02:41:18;31.38;;;15.93;;
73296;SDS011;61524;50.938;11.396;2023-05-07T02:43:43;30.83;;;17.05;;
73296;SDS011;61524;50.938;11.396;2023-05-07T02:46:09;32.50;;;16.55;;
73296;SDS011;61524;50.938;11.396;2023-05-07T02:48:35;33.53;;;17.67;;
73296;SDS011;61524;50.938;11.396;2023-05-07T02:51:00;30.00;;;15.32;;
73296;SDS011;61524;50.938;11.396;2023-05-07T02:53:27;30.17;;;16.40;;
73296;SDS011;61524;50.938;11.396;2023-05-07T02:55:56;31.08;;;15.38;;
73296;SDS011;61524;50.938;11.396;2023-05-07T02:58:22;33.95;;;17.52;;
73296;SDS011;61524;50.938;11.396;2023-05-07T03:00:48;30.05;;;15.00;;
73296;SDS011;61524;50.938;11.396;2023-05-07T03:03:13;29.67;;;14.88;;
73296;SDS011;61524;50.938;11.396;2023-05-07T03:05:39;26.17;;;14.00;;
73296;SDS011;61524;50.938;11.396;2023-05-07T03:08:05;27.73;;;14.43;;
73296;SDS011;61524;50.938;11.396;2023-05-07T03:10:31;29.63;;;14.30;;
73296;SDS011;61524;50.938;11.396;2023-05-07T03:12:56;27.23;;;14.82;;
73296;SDS011;61524;50.938;11.396;2023-05-07T03:15:22;26.15;;;13.95;;
73296;SDS011;61524;50.938;11.396;2023-05-07T03:17:47;27.35;;;13.23;;
73296;SDS011;61524;50.938;11.396;2023-05-07T03:20:13;31.27;;;14.30;;
73296;SDS011;61524;50.938;11.396;2023-05-07T03:22:39;24.10;;;12.63;;
73296;SDS011;61524;50.938;11.396;2023-05-07T03:25:05;25.92;;;12.73;;
73296;SDS011;61524;50.938;11.396;2023-05-07T03:27:31;24.50;;;12.55;;
73296;SDS011;61524;50.938;11.396;2023-05-07T03:29:56;24.33;;;11.38;;
73296;SDS011;61524;50.938;11.396;2023-05-07T03:32:22;21.92;;;11.50;;
73296;SDS011;61524;50.938;11.396;2023-05-07T03:34:47;22.65;;;11.10;;
73296;SDS011;61524;50.938;11.396;2023-05-07T03:37:13;21.25;;;11.18;;
73296;SDS011;61524;50.938;11.396;2023-05-07T03:39:38;20.83;;;10.38;;
73296;SDS011;61524;50.938;11.396;2023-05-07T03:42:03;21.33;;;10.10;;
73296;SDS011;61524;50.938;11.396;2023-05-07T03:44:29;19.58;;;10.35;;
73296;SDS011;61524;50.938;11.396;2023-05-07T03:46:54;19.08;;;9.63;;
73296;SDS011;61524;50.938;11.396;2023-05-07T03:49:20;15.90;;;8.60;;
73296;SDS011;61524;50.938;11.396;2023-05-07T03:51:46;16.65;;;8.95;;
73296;SDS011;61524;50.938;11.396;2023-05-07T03:54:11;16.60;;;8.30;;
73296;SDS011;61524;50.938;11.396;2023-05-07T03:56:37;14.48;;;8.20;;
73296;SDS011;61524;50.938;11.396;2023-05-07T03:59:02;17.85;;;8.82;;
73296;SDS011;61524;50.938;11.396;2023-05-07T04:01:28;17.60;;;8.75;;
73296;SDS011;61524;50.938;11.396;2023-05-07T04:03:53;16.83;;;8.60;;
73296;SDS011;61524;50.938;11.396;2023-05-07T04:06:19;15.98;;;8.50;;
73296;SDS011;61524;50.938;11.396;2023-05-07T04:08:44;18.45;;;9.48;;
73296;SDS011;61524;50.938;11.396;2023-05-07T04:11:09;16.85;;;9.15;;
73296;SDS011;61524;50.938;11.396;2023-05-07T04:13:35;17.52;;;10.73;;
73296;SDS011;61524;50.938;11.396;2023-05-07T04:16:01;18.27;;;8.80;;
73296;SDS011;61524;50.938;11.396;2023-05-07T04:20:53;15.82;;;8.07;;
73296;SDS011;61524;50.938;11.396;2023-05-07T04:23:18;17.52;;;9.25;;
73296;SDS011;61524;50.938;11.396;2023-05-07T04:25:44;15.52;;;9.05;;
73296;SDS011;61524;50.938;11.396;2023-05-07T04:28:10;16.98;;;8.57;;
73296;SDS011;61524;50.938;11.396;2023-05-07T04:30:36;13.82;;;7.53;;
73296;SDS011;61524;50.938;11.396;2023-05-07T04:33:02;18.48;;;9.77;;
73296;SDS011;61524;50.938;11.396;2023-05-07T04:35:27;17.27;;;8.75;;
73296;SDS011;61524;50.938;11.396;2023-05-07T04:37:53;16.38;;;8.85;;
73296;SDS011;61524;50.938;11.396;2023-05-07T04:40:18;15.75;;;8.15;;
73296;SDS011;61524;50.938;11.396;2023-05-07T04:42:43;16.27;;;8.80;;
73296;SDS011;61524;50.938;11.396;2023-05-07T04:45:09;19.35;;;10.32;;
73296;SDS011;61524;50.938;11.396;2023-05-07T04:47:35;18.67;;;8.73;;
73296;SDS011;61524;50.938;11.396;2023-05-07T04:50:01;21.00;;;10.75;;
73296;SDS011;61524;50.938;11.396;2023-05-07T04:52:26;23.52;;;11.88;;
73296;SDS011;61524;50.938;11.396;2023-05-07T04:54:52;26.85;;;12.55;;
73296;SDS011;61524;50.938;11.396;2023-05-07T04:57:17;25.15;;;13.30;;
73296;SDS011;61524;50.938;11.396;2023-05-07T04:59:43;22.83;;;12.40;;
73296;SDS011;61524;50.938;11.396;2023-05-07T05:02:12;27.77;;;13.88;;
73296;SDS011;61524;50.938;11.396;2023-05-07T05:04:37;24.50;;;13.05;;
73296;SDS011;61524;50.938;11.396;2023-05-07T05:07:03;25.42;;;12.70;;
73296;SDS011;61524;50.938;11.396;2023-05-07T05:09:29;28.95;;;14.55;;
73296;SDS011;61524;50.938;11.396;2023-05-07T05:11:55;25.95;;;13.07;;
73296;SDS011;61524;50.938;11.396;2023-05-07T05:14:20;23.60;;;12.77;;
73296;SDS011;61524;50.938;11.396;2023-05-07T05:16:46;28.35;;;12.90;;
73296;SDS011;61524;50.938;11.396;2023-05-07T05:19:11;25.05;;;12.85;;
73296;SDS011;61524;50.938;11.396;2023-05-07T05:21:37;24.40;;;12.65;;
73296;SDS011;61524;50.938;11.396;2023-05-07T05:24:02;29.20;;;13.00;;
73296;SDS011;61524;50.938;11.396;2023-05-07T05:26:28;25.10;;;12.05;;
73296;SDS011;61524;50.938;11.396;2023-05-07T05:28:53;25.48;;;12.65;;
73296;SDS011;61524;50.938;11.396;2023-05-07T05:31:19;23.10;;;12.27;;
73296;SDS011;61524;50.938;11.396;2023-05-07T05:33:44;33.38;;;14.32;;
73296;SDS011;61524;50.938;11.396;2023-05-07T05:36:10;26.17;;;12.73;;
73296;SDS011;61524;50.938;11.396;2023-05-07T05:38:36;23.00;;;10.43;;
73296;SDS011;61524;50.938;11.396;2023-05-07T05:41:01;24.30;;;10.60;;
73296;SDS011;61524;50.938;11.396;2023-05-07T05:43:27;20.88;;;10.80;;
73296;SDS011;61524;50.938;11.396;2023-05-07T05:45:52;19.02;;;10.23;;
73296;SDS011;61524;50.938;11.396;2023-05-07T05:48:18;21.05;;;11.40;;
73296;SDS011;61524;50.938;11.396;2023-05-07T05:50:43;20.88;;;10.85;;
73296;SDS011;61524;50.938;11.396;2023-05-07T05:53:09;18.27;;;9.60;;
73296;SDS011;61524;50.938;11.396;2023-05-07T05:55:34;18.05;;;10.60;;
73296;SDS011;61524;50.938;11.396;2023-05-07T05:58:00;18.05;;;8.35;;
73296;SDS011;61524;50.938;11.396;2023-05-07T06:00:26;18.90;;;10.05;;
73296;SDS011;61524;50.938;11.396;2023-05-07T06:02:52;17.92;;;8.95;;
73296;SDS011;61524;50.938;11.396;2023-05-07T06:05:17;18.13;;;8.38;;
73296;SDS011;61524;50.938;11.396;2023-05-07T06:07:43;16.88;;;9.07;;
73296;SDS011;61524;50.938;11.396;2023-05-07T06:10:08;14.63;;;8.50;;
73296;SDS011;61524;50.938;11.396;2023-05-07T06:12:34;16.88;;;8.55;;
73296;SDS011;61524;50.938;11.396;2023-05-07T06:15:00;14.18;;;8.07;;
73296;SDS011;61524;50.938;11.396;2023-05-07T06:17:25;14.50;;;8.15;;
73296;SDS011;61524;50.938;11.396;2023-05-07T06:19:51;15.48;;;8.02;;
73296;SDS011;61524;50.938;11.396;2023-05-07T06:22:17;16.20;;;8.65;;
73296;SDS011;61524;50.938;11.396;2023-05-07T06:24:42;14.98;;;7.75;;
73296;SDS011;61524;50.938;11.396;2023-05-07T06:27:08;14.98;;;8.43;;
73296;SDS011;61524;50.938;11.396;2023-05-07T06:29:33;15.75;;;8.20;;
73296;SDS011;61524;50.938;11.396;2023-05-07T06:32:12;16.08;;;7.82;;
73296;SDS011;61524;50.938;11.396;2023-05-07T06:34:39;16.17;;;8.07;;
73296;SDS011;61524;50.938;11.396;2023-05-07T06:37:05;12.68;;;6.97;;
73296;SDS011;61524;50.938;11.396;2023-05-07T06:39:31;11.85;;;6.65;;
73296;SDS011;61524;50.938;11.396;2023-05-07T06:41:57;13.50;;;7.25;;
73296;SDS011;61524;50.938;11.396;2023-05-07T06:44:23;13.38;;;7.65;;
73296;SDS011;61524;50.938;11.396;2023-05-07T06:46:49;13.93;;;7.07;;
73296;SDS011;61524;50.938;11.396;2023-05-07T06:49:14;14.73;;;7.70;;
73296;SDS011;61524;50.938;11.396;2023-05-07T06:51:40;15.77;;;6.68;;
73296;SDS011;61524;50.938;11.396;2023-05-07T06:54:06;15.80;;;7.05;;
73296;SDS011;61524;50.938;11.396;2023-05-07T06:56:32;12.57;;;6.78;;
73296;SDS011;61524;50.938;11.396;2023-05-07T06:58:59;14.73;;;7.93;;
73296;SDS011;61524;50.938;11.396;2023-05-07T07:01:25;15.13;;;7.88;;
73296;SDS011;61524;50.938;11.396;2023-05-07T07:03:51;12.32;;;6.53;;
73296;SDS011;61524;50.938;11.396;2023-05-07T07:06:16;14.07;;;7.57;;
73296;SDS011;61524;50.938;11.396;2023-05-07T07:08:42;16.10;;;7.65;;
73296;SDS011;61524;50.938;11.396;2023-05-07T07:11:08;12.20;;;6.35;;
73296;SDS011;61524;50.938;11.396;2023-05-07T07:13:33;14.30;;;6.68;;
73296;SDS011;61524;50.938;11.396;2023-05-07T07:15:59;12.88;;;6.82;;
73296;SDS011;61524;50.938;11.396;2023-05-07T07:18:25;14.80;;;7.40;;
73296;SDS011;61524;50.938;11.396;2023-05-07T07:20:50;16.13;;;8.02;;
73296;SDS011;61524;50.938;11.396;2023-05-07T07:23:16;12.93;;;6.60;;
73296;SDS011;61524;50.938;11.396;2023-05-07T07:25:41;15.65;;;6.85;;
73296;SDS011;61524;50.938;11.396;2023-05-07T07:28:07;13.45;;;6.15;;
73296;SDS011;61524;50.938;11.396;2023-05-07T07:30:32;13.48;;;7.68;;
73296;SDS011;61524;50.938;11.396;2023-05-07T07:32:58;14.20;;;7.13;;
73296;SDS011;61524;50.938;11.396;2023-05-07T07:35:27;16.27;;;8.10;;
73296;SDS011;61524;50.938;11.396;2023-05-07T07:37:53;15.38;;;7.57;;
73296;SDS011;61524;50.938;11.396;2023-05-07T07:40:19;13.88;;;8.18;;
73296;SDS011;61524;50.938;11.396;2023-05-07T07:42:44;14.38;;;7.47;;
73296;SDS011;61524;50.938;11.396;2023-05-07T07:45:10;14.75;;;8.27;;
73296;SDS011;61524;50.938;11.396;2023-05-07T07:47:35;13.13;;;7.40;;
73296;SDS011;61524;50.938;11.396;2023-05-07T07:50:01;15.88;;;7.95;;
73296;SDS011;61524;50.938;11.396;2023-05-07T07:52:26;14.10;;;7.22;;
73296;SDS011;61524;50.938;11.396;2023-05-07T07:54:52;15.07;;;7.97;;
73296;SDS011;61524;50.938;11.396;2023-05-07T07:57:17;13.45;;;7.18;;
73296;SDS011;61524;50.938;11.396;2023-05-07T07:59:42;13.68;;;7.72;;
73296;SDS011;61524;50.938;11.396;2023-05-07T08:02:08;13.93;;;8.50;;
73296;SDS011;61524;50.938;11.396;2023-05-07T08:04:34;15.00;;;7.90;;
73296;SDS011;61524;50.938;11.396;2023-05-07T08:07:00;16.63;;;8.00;;
73296;SDS011;61524;50.938;11.396;2023-05-07T08:09:25;12.77;;;7.15;;
73296;SDS011;61524;50.938;11.396;2023-05-07T08:11:51;14.75;;;8.40;;
73296;SDS011;61524;50.938;11.396;2023-05-07T08:14:17;16.55;;;8.63;;
73296;SDS011;61524;50.938;11.396;2023-05-07T08:16:42;13.70;;;7.72;;
73296;SDS011;61524;50.938;11.396;2023-05-07T08:19:08;16.38;;;9.30;;
73296;SDS011;61524;50.938;11.396;2023-05-07T08:21:33;17.23;;;9.25;;
73296;SDS011;61524;50.938;11.396;2023-05-07T08:23:59;18.65;;;8.88;;
73296;SDS011;61524;50.938;11.396;2023-05-07T08:26:24;14.73;;;8.88;;
73296;SDS011;61524;50.938;11.396;2023-05-07T08:28:50;17.67;;;9.52;;
73296;SDS011;61524;50.938;11.396;2023-05-07T08:31:15;16.13;;;9.02;;
73296;SDS011;61524;50.938;11.396;2023-05-07T08:33:41;15.75;;;8.60;;
73296;SDS011;61524;50.938;11.396;2023-05-07T08:36:06;15.00;;;8.20;;
73296;SDS011;61524;50.938;11.396;2023-05-07T08:38:32;18.13;;;8.57;;
73296;SDS011;61524;50.938;11.396;2023-05-07T08:40:57;14.10;;;8.60;;
73296;SDS011;61524;50.938;11.396;2023-05-07T08:43:24;16.80;;;8.82;;
73296;SDS011;61524;50.938;11.396;2023-05-07T08:45:53;17.58;;;8.98;;
73296;SDS011;61524;50.938;11.396;2023-05-07T08:48:22;15.77;;;8.77;;
73296;SDS011;61524;50.938;11.396;2023-05-07T08:50:51;15.30;;;8.95;;
73296;SDS011;61524;50.938;11.396;2023-05-07T08:53:16;15.57;;;9.30;;
73296;SDS011;61524;50.938;11.396;2023-05-07T08:55:43;15.75;;;8.98;;
73296;SDS011;61524;50.938;11.396;2023-05-07T08:58:08;12.90;;;8.25;;
73296;SDS011;61524;50.938;11.396;2023-05-07T09:00:34;14.55;;;8.35;;
73296;SDS011;61524;50.938;11.396;2023-05-07T09:03:01;16.65;;;7.78;;
73296;SDS011;61524;50.938;11.396;2023-05-07T09:05:26;17.20;;;9.02;;
73296;SDS011;61524;50.938;11.396;2023-05-07T09:07:52;13.93;;;8.63;;
73296;SDS011;61524;50.938;11.396;2023-05-07T09:10:18;16.17;;;8.15;;
73296;SDS011;61524;50.938;11.396;2023-05-07T09:12:43;15.25;;;8.57;;
73296;SDS011;61524;50.938;11.396;2023-05-07T09:15:11;14.38;;;8.40;;
73296;SDS011;61524;50.938;11.396;2023-05-07T09:17:37;13.57;;;7.95;;
73296;SDS011;61524;50.938;11.396;2023-05-07T09:20:03;15.10;;;8.38;;
73296;SDS011;61524;50.938;11.396;2023-05-07T09:22:33;15.73;;;8.65;;
73296;SDS011;61524;50.938;11.396;2023-05-07T09:24:59;16.55;;;9.18;;
73296;SDS011;61524;50.938;11.396;2023-05-07T09:27:25;20.90;;;9.95;;
73296;SDS011;61524;50.938;11.396;2023-05-07T09:29:57;15.52;;;9.32;;
73296;SDS011;61524;50.938;11.396;2023-05-07T09:32:23;18.52;;;8.40;;
73296;SDS011;61524;50.938;11.396;2023-05-07T09:34:50;17.70;;;9.93;;
73296;SDS011;61524;50.938;11.396;2023-05-07T09:37:15;16.80;;;10.60;;
73296;SDS011;61524;50.938;11.396;2023-05-07T09:39:50;13.77;;;8.50;;
73296;SDS011;61524;50.938;11.396;2023-05-07T09:42:16;13.68;;;8.27;;
73296;SDS011;61524;50.938;11.396;2023-05-07T09:44:48;14.35;;;8.82;;
73296;SDS011;61524;50.938;11.396;2023-05-07T09:47:15;13.52;;;8.27;;
73296;SDS011;61524;50.938;11.396;2023-05-07T09:49:45;15.23;;;8.75;;
73296;SDS011;61524;50.938;11.396;2023-05-07T09:52:13;15.25;;;9.13;;
73296;SDS011;61524;50.938;11.396;2023-05-07T09:54:39;15.23;;;8.25;;
73296;SDS011;61524;50.938;11.396;2023-05-07T09:57:07;13.45;;;9.30;;
73296;SDS011;61524;50.938;11.396;2023-05-07T09:59:36;14.68;;;9.18;;
73296;SDS011;61524;50.938;11.396;2023-05-07T10:02:03;13.07;;;8.50;;
73296;SDS011;61524;50.938;11.396;2023-05-07T10:04:30;12.13;;;7.93;;
73296;SDS011;61524;50.938;11.396;2023-05-07T10:06:56;14.43;;;7.40;;
73296;SDS011;61524;50.938;11.396;2023-05-07T10:09:23;13.32;;;8.27;;
73296;SDS011;61524;50.938;11.396;2023-05-07T10:11:51;8.98;;;5.43;;
73296;SDS011;61524;50.938;11.396;2023-05-07T10:14:18;13.27;;;8.23;;
73296;SDS011;61524;50.938;11.396;2023-05-07T10:16:46;13.98;;;8.55;;
73296;SDS011;61524;50.938;11.396;2023-05-07T10:21:39;13.25;;;8.45;;
73296;SDS011;61524;50.938;11.396;2023-05-07T10:24:35;14.18;;;8.02;;
73296;SDS011;61524;50.938;11.396;2023-05-07T10:26:59;14.30;;;7.88;;
73296;SDS011;61524;50.938;11.396;2023-05-07T10:34:29;13.88;;;8.32;;
73296;SDS011;61524;50.938;11.396;2023-05-07T10:37:00;12.98;;;7.55;;
73296;SDS011;61524;50.938;11.396;2023-05-07T10:39:27;11.13;;;6.80;;
73296;SDS011;61524;50.938;11.396;2023-05-07T10:41:53;13.45;;;8.10;;
73296;SDS011;61524;50.938;11.396;2023-05-07T10:44:28;11.57;;;7.00;;
73296;SDS011;61524;50.938;11.396;2023-05-07T10:47:06;12.77;;;7.85;;
73296;SDS011;61524;50.938;11.396;2023-05-07T10:49:38;12.35;;;7.65;;
73296;SDS011;61524;50.938;11.396;2023-05-07T10:52:31;11.88;;;7.28;;
73296;SDS011;61524;50.938;11.396;2023-05-07T10:55:29;12.75;;;7.90;;
73296;SDS011;61524;50.938;11.396;2023-05-07T10:57:50;11.00;;;7.55;;
73296;SDS011;61524;50.938;11.396;2023-05-07T11:07:56;13.20;;;8.43;;
73296;SDS011;61524;50.938;11.396;2023-05-07T11:10:22;13.05;;;8.25;;
73296;SDS011;61524;50.938;11.396;2023-05-07T11:12:48;11.45;;;6.82;;
73296;SDS011;61524;50.938;11.396;2023-05-07T11:15:15;12.55;;;7.80;;
73296;SDS011;61524;50.938;11.396;2023-05-07T11:17:58;13.98;;;8.23;;
73296;SDS011;61524;50.938;11.396;2023-05-07T11:26:04;12.18;;;7.60;;
73296;SDS011;61524;50.938;11.396;2023-05-07T11:28:31;13.82;;;7.57;;
73296;SDS011;61524;50.938;11.396;2023-05-07T11:31:01;13.20;;;7.85;;
73296;SDS011;61524;50.938;11.396;2023-05-07T11:33:27;12.85;;;7.50;;
73296;SDS011;61524;50.938;11.396;2023-05-07T11:35:53;14.23;;;8.30;;
73296;SDS011;61524;50.938;11.396;2023-05-07T11:38:19;10.48;;;6.70;;
73296;SDS011;61524;50.938;11.396;2023-05-07T11:40:48;14.00;;;7.72;;
73296;SDS011;61524;50.938;11.396;2023-05-07T11:43:17;13.98;;;7.68;;
73296;SDS011;61524;50.938;11.396;2023-05-07T11:45:44;11.10;;;7.13;;
73296;SDS011;61524;50.938;11.396;2023-05-07T11:48:12;11.43;;;7.32;;
73296;SDS011;61524;50.938;11.396;2023-05-07T11:51:00;12.05;;;7.45;;
73296;SDS011;61524;50.938;11.396;2023-05-07T11:53:27;12.15;;;7.30;;
73296;SDS011;61524;50.938;11.396;2023-05-07T11:55:59;13.63;;;7.20;;
73296;SDS011;61524;50.938;11.396;2023-05-07T11:58:25;10.60;;;7.38;;
73296;SDS011;61524;50.938;11.396;2023-05-07T12:00:51;12.65;;;7.82;;
73296;SDS011;61524;50.938;11.396;2023-05-07T12:03:18;11.27;;;6.53;;
73296;SDS011;61524;50.938;11.396;2023-05-07T12:05:46;11.07;;;7.25;;
73296;SDS011;61524;50.938;11.396;2023-05-07T12:08:16;13.25;;;7.35;;
73296;SDS011;61524;50.938;11.396;2023-05-07T12:10:42;13.20;;;6.85;;
73296;SDS011;61524;50.938;11.396;2023-05-07T12:13:19;12.05;;;6.28;;
73296;SDS011;61524;50.938;11.396;2023-05-07T12:15:44;11.05;;;7.78;;
73296;SDS011;61524;50.938;11.396;2023-05-07T12:18:13;11.98;;;7.00;;
73296;SDS011;61524;50.938;11.396;2023-05-07T12:20:39;12.15;;;7.32;;
73296;SDS011;61524;50.938;11.396;2023-05-07T12:23:05;9.75;;;6.70;;
73296;SDS011;61524;50.938;11.396;2023-05-07T12:25:31;11.57;;;7.68;;
73296;SDS011;61524;50.938;11.396;2023-05-07T12:28:00;11.32;;;7.43;;
73296;SDS011;61524;50.938;11.396;2023-05-07T12:30:26;11.40;;;7.03;;
73296;SDS011;61524;50.938;11.396;2023-05-07T12:32:52;10.80;;;7.63;;
73296;SDS011;61524;50.938;11.396;2023-05-07T12:35:26;10.45;;;7.43;;
73296;SDS011;61524;50.938;11.396;2023-05-07T12:38:12;9.82;;;6.60;;
73296;SDS011;61524;50.938;11.396;2023-05-07T12:40:39;10.80;;;7.35;;
73296;SDS011;61524;50.938;11.396;2023-05-07T12:43:05;11.00;;;7.40;;
73296;SDS011;61524;50.938;11.396;2023-05-07T12:45:30;10.90;;;7.35;;
73296;SDS011;61524;50.938;11.396;2023-05-07T12:47:56;10.18;;;7.57;;
73296;SDS011;61524;50.938;11.396;2023-05-07T12:50:26;12.88;;;7.55;;
73296;SDS011;61524;50.938;11.396;2023-05-07T12:52:56;10.43;;;7.00;;
73296;SDS011;61524;50.938;11.396;2023-05-07T12:55:22;10.35;;;7.20;;
73296;SDS011;61524;50.938;11.396;2023-05-07T12:57:48;9.55;;;6.25;;
73296;SDS011;61524;50.938;11.396;2023-05-07T13:00:15;8.40;;;6.15;;
73296;SDS011;61524;50.938;11.396;2023-05-07T13:02:42;11.23;;;7.03;;
73296;SDS011;61524;50.938;11.396;2023-05-07T13:05:11;10.35;;;6.28;;
73296;SDS011;61524;50.938;11.396;2023-05-07T13:07:37;9.38;;;6.72;;
73296;SDS011;61524;50.938;11.396;2023-05-07T13:10:03;10.05;;;6.85;;
73296;SDS011;61524;50.938;11.396;2023-05-07T13:12:29;9.98;;;6.80;;
73296;SDS011;61524;50.938;11.396;2023-05-07T13:14:54;10.25;;;6.95;;
73296;SDS011;61524;50.938;11.396;2023-05-07T13:17:20;10.75;;;6.95;;
73296;SDS011;61524;50.938;11.396;2023-05-07T13:19:46;10.38;;;6.85;;
73296;SDS011;61524;50.938;11.396;2023-05-07T13:22:11;11.25;;;6.78;;
73296;SDS011;61524;50.938;11.396;2023-05-07T13:24:36;9.07;;;7.28;;
73296;SDS011;61524;50.938;11.396;2023-05-07T13:27:02;9.82;;;6.38;;
73296;SDS011;61524;50.938;11.396;2023-05-07T13:29:28;8.48;;;5.75;;
73296;SDS011;61524;50.938;11.396;2023-05-07T13:31:55;10.48;;;6.85;;
73296;SDS011;61524;50.938;11.396;2023-05-07T13:36:47;8.73;;;6.22;;
73296;SDS011;61524;50.938;11.396;2023-05-07T13:39:12;9.45;;;6.22;;
73296;SDS011;61524;50.938;11.396;2023-05-07T13:41:38;10.05;;;6.05;;
73296;SDS011;61524;50.938;11.396;2023-05-07T13:44:03;9.63;;;6.05;;
73296;SDS011;61524;50.938;11.396;2023-05-07T13:46:29;7.32;;;5.53;;
73296;SDS011;61524;50.938;11.396;2023-05-07T13:48:55;8.63;;;6.05;;
73296;SDS011;61524;50.938;11.396;2023-05-07T13:51:20;10.32;;;5.97;;
73296;SDS011;61524;50.938;11.396;2023-05-07T13:53:46;8.55;;;5.25;;
73296;SDS011;61524;50.938;11.396;2023-05-07T13:56:12;7.80;;;5.43;;
73296;SDS011;61524;50.938;11.396;2023-05-07T13:58:37;9.25;;;5.95;;
73296;SDS011;61524;50.938;11.396;2023-05-07T14:01:03;9.73;;;5.63;;
73296;SDS011;61524;50.938;11.396;2023-05-07T14:03:28;10.32;;;6.45;;
73296;SDS011;61524;50.938;11.396;2023-05-07T14:05:56;10.88;;;6.57;;
73296;SDS011;61524;50.938;11.396;2023-05-07T14:08:22;7.95;;;5.25;;
73296;SDS011;61524;50.938;11.396;2023-05-07T14:10:48;7.75;;;4.88;;
73296;SDS011;61524;50.938;11.396;2023-05-07T14:13:13;7.45;;;5.10;;
73296;SDS011;61524;50.938;11.396;2023-05-07T14:15:39;7.68;;;5.53;;
73296;SDS011;61524;50.938;11.396;2023-05-07T14:18:05;7.13;;;4.50;;
73296;SDS011;61524;50.938;11.396;2023-05-07T14:20:30;7.10;;;4.65;;
73296;SDS011;61524;50.938;11.396;2023-05-07T14:22:56;9.48;;;4.90;;
73296;SDS011;61524;50.938;11.396;2023-05-07T14:25:21;7.03;;;4.47;;
73296;SDS011;61524;50.938;11.396;2023-05-07T14:27:47;7.88;;;5.32;;
73296;SDS011;61524;50.938;11.396;2023-05-07T14:30:12;7.88;;;5.10;;
73296;SDS011;61524;50.938;11.396;2023-05-07T14:32:38;6.45;;;4.45;;
73296;SDS011;61524;50.938;11.396;2023-05-07T14:35:03;6.35;;;4.53;;
73296;SDS011;61524;50.938;11.396;2023-05-07T14:37:29;7.72;;;5.43;;
73296;SDS011;61524;50.938;11.396;2023-05-07T14:39:55;5.28;;;3.78;;
73296;SDS011;61524;50.938;11.396;2023-05-07T14:42:20;6.63;;;5.03;;